Time;durP1;ratioP1;P1;durP2;ratioP2;P2;SDS_P1;SDS_P2;PMS_P1;PMS_P2;Temp;Humidity;BMP_temperature;BMP_pressure;BME280_temperature;BME280_humidity;BME280_pressure;Samples;Min_cycle;Max_cycle;Signal;HPM_P1;HPM_P2
2020/12/22 00:01:10;;;;;;;2.78;1.60;;;22.70;50.70;;;;;;5076015;28;20028;-65
2020/12/22 00:03:35;;;;;;;3.28;1.42;;;22.70;50.80;;;;;;5084669;28;20031;-64
2020/12/22 00:06:01;;;;;;;2.88;1.35;;;22.60;50.90;;;;;;5084438;28;20024;-64
2020/12/22 00:08:27;;;;;;;3.70;1.38;;;22.60;50.90;;;;;;5076187;28;20043;-63
2020/12/22 00:10:52;;;;;;;2.97;1.40;;;22.60;50.90;;;;;;5080640;28;20056;-65
2020/12/22 00:13:18;;;;;;;2.88;1.30;;;22.60;51.00;;;;;;5072793;28;20078;-64
2020/12/22 00:15:43;;;;;;;3.50;1.40;;;22.60;51.00;;;;;;5073180;28;20466;-65
2020/12/22 00:18:10;;;;;;;2.10;1.25;;;22.50;51.00;;;;;;5083549;28;20028;-64
2020/12/22 00:20:36;;;;;;;2.55;1.30;;;22.50;51.00;;;;;;5084966;28;20028;-65
2020/12/22 00:23:02;;;;;;;3.42;1.35;;;22.50;51.00;;;;;;5079789;28;20028;-63
2020/12/22 00:25:27;;;;;;;2.25;1.38;;;22.50;51.10;;;;;;5078039;28;20042;-63
2020/12/22 00:27:53;;;;;;;2.95;1.33;;;22.40;51.10;;;;;;5076986;28;20355;-62
2020/12/22 00:30:19;;;;;;;1.60;1.10;;;22.40;51.00;;;;;;5083389;28;20028;-62
2020/12/22 00:32:44;;;;;;;2.72;1.10;;;22.40;51.10;;;;;;5081464;28;20116;-62
2020/12/22 00:35:10;;;;;;;2.15;1.23;;;22.40;51.10;;;;;;5081416;28;20035;-62
2020/12/22 00:37:36;;;;;;;2.70;1.40;;;22.40;51.10;;;;;;5084746;28;20039;-63
2020/12/22 00:40:01;;;;;;;3.80;1.60;;;22.40;51.20;;;;;;5086005;28;20028;-62
2020/12/22 00:42:33;;;;;;;2.33;1.20;;;22.40;51.20;;;;;;5077373;28;20127;-63
2020/12/22 00:44:59;;;;;;;2.33;1.60;;;22.30;51.20;;;;;;5077890;28;20426;-64
2020/12/22 00:47:25;;;;;;;2.42;1.20;;;22.30;51.20;;;;;;5088312;28;20032;-63
2020/12/22 00:49:51;;;;;;;1.30;1.10;;;22.30;51.30;;;;;;5081016;28;20027;-62
2020/12/22 00:52:17;;;;;;;2.97;1.40;;;22.30;51.30;;;;;;5079717;28;20111;-64
2020/12/22 00:54:42;;;;;;;2.35;1.13;;;22.30;51.40;;;;;;5086187;28;20471;-63
2020/12/22 00:57:08;;;;;;;2.20;1.20;;;22.20;51.40;;;;;;5078338;28;20046;-63
2020/12/22 00:59:37;;;;;;;2.40;1.40;;;22.20;51.40;;;;;;5082690;28;20040;-63
2020/12/22 01:02:07;;;;;;;2.45;1.13;;;22.20;51.50;;;;;;5067443;28;20038;-62
2020/12/22 01:04:33;;;;;;;1.48;1.10;;;22.20;51.50;;;;;;5085694;28;20057;-62
2020/12/22 01:06:59;;;;;;;2.30;1.38;;;22.20;51.50;;;;;;5065676;28;20539;-63
2020/12/22 01:09:24;;;;;;;2.17;1.20;;;22.20;51.50;;;;;;5085151;28;20032;-62
2020/12/22 01:11:50;;;;;;;2.03;1.30;;;22.20;51.50;;;;;;5085363;28;20024;-62
2020/12/22 01:14:16;;;;;;;2.60;1.10;;;22.10;51.50;;;;;;5087384;28;20416;-63
2020/12/22 01:16:42;;;;;;;2.53;1.13;;;22.20;51.60;;;;;;5086550;28;20028;-64
2020/12/22 01:19:08;;;;;;;2.22;1.10;;;22.10;51.50;;;;;;5083642;28;20105;-66
2020/12/22 01:21:34;;;;;;;1.90;1.13;;;22.10;51.50;;;;;;5075000;28;20070;-65
2020/12/22 01:24:00;;;;;;;1.90;1.08;;;22.10;51.50;;;;;;5069018;28;20024;-62
2020/12/22 01:26:27;;;;;;;2.17;1.20;;;22.10;51.50;;;;;;5066790;28;20040;-63
2020/12/22 01:28:53;;;;;;;2.00;1.02;;;22.10;51.70;;;;;;5084984;28;20077;-62
2020/12/22 01:31:23;;;;;;;2.85;1.20;;;22.00;51.60;;;;;;5084423;28;20467;-65
2020/12/22 01:33:49;;;;;;;1.60;1.00;;;22.00;51.60;;;;;;5087402;28;20372;-63
2020/12/22 01:36:15;;;;;;;1.58;1.10;;;22.00;51.60;;;;;;5080945;28;20042;-62
2020/12/22 01:38:41;;;;;;;1.88;1.10;;;22.00;51.60;;;;;;5085560;28;20107;-63
2020/12/22 01:41:07;;;;;;;2.15;1.05;;;22.00;51.60;;;;;;5086845;28;20024;-62
2020/12/22 01:43:33;;;;;;;2.03;1.10;;;22.00;51.60;;;;;;5086840;28;20036;-63
2020/12/22 01:45:58;;;;;;;2.63;1.00;;;21.90;51.70;;;;;;5085874;28;20055;-66
2020/12/22 01:48:25;;;;;;;1.90;1.10;;;21.90;52.10;;;;;;5086644;28;20414;-62
2020/12/22 01:50:50;;;;;;;2.42;1.35;;;21.90;51.60;;;;;;5068150;28;20036;-63
2020/12/22 01:53:16;;;;;;;1.55;0.88;;;21.90;51.70;;;;;;5084302;28;20024;-62
2020/12/22 01:55:42;;;;;;;1.40;0.93;;;21.90;51.60;;;;;;5083960;28;20059;-64
2020/12/22 01:58:08;;;;;;;1.10;0.93;;;21.90;51.80;;;;;;5084277;28;20113;-63
2020/12/22 02:00:34;;;;;;;2.72;1.30;;;21.80;51.70;;;;;;5085632;28;20036;-66
2020/12/22 02:03:00;;;;;;;2.00;1.00;;;21.80;51.80;;;;;;5084481;28;20032;-65
2020/12/22 02:05:26;;;;;;;1.08;0.90;;;21.80;51.70;;;;;;5086215;28;20072;-62
2020/12/22 02:07:51;;;;;;;1.55;1.00;;;21.70;51.70;;;;;;5076310;28;20021;-62
2020/12/22 02:10:17;;;;;;;2.17;0.90;;;21.80;51.80;;;;;;5088345;28;20028;-61
2020/12/22 02:12:43;;;;;;;1.52;0.98;;;21.70;52.30;;;;;;5081340;28;20032;-63
2020/12/22 02:15:08;;;;;;;2.03;1.00;;;21.70;51.80;;;;;;5080175;28;20098;-63
2020/12/22 02:17:35;;;;;;;2.53;0.90;;;21.70;51.70;;;;;;5088342;28;20024;-64
2020/12/22 02:20:00;;;;;;;1.55;0.90;;;21.70;51.80;;;;;;5089245;28;20031;-63
2020/12/22 02:22:26;;;;;;;1.70;1.10;;;21.70;51.80;;;;;;5083075;28;20471;-61
2020/12/22 02:24:52;;;;;;;1.23;0.98;;;21.70;51.80;;;;;;5088952;28;20024;-63
2020/12/22 02:27:17;;;;;;;1.00;0.90;;;21.70;51.80;;;;;;5089475;28;20028;-62
2020/12/22 02:29:43;;;;;;;1.75;0.80;;;21.60;51.80;;;;;;5087435;28;20485;-65
2020/12/22 02:32:12;;;;;;;1.00;0.80;;;21.60;51.80;;;;;;5069923;28;20020;-63
2020/12/22 02:34:37;;;;;;;1.60;1.02;;;21.60;51.90;;;;;;5090365;28;20100;-63
2020/12/22 02:37:03;;;;;;;1.50;0.80;;;21.60;51.80;;;;;;5085142;28;20482;-65
2020/12/22 02:39:28;;;;;;;1.48;0.90;;;21.60;51.80;;;;;;5086817;28;20037;-62
2020/12/22 02:41:54;;;;;;;0.98;0.80;;;21.60;52.00;;;;;;5083219;28;20040;-61
2020/12/22 02:44:20;;;;;;;1.27;0.80;;;21.60;51.90;;;;;;5087294;28;20043;-62
2020/12/22 02:46:45;;;;;;;0.90;0.70;;;21.50;51.80;;;;;;5089003;28;20066;-63
2020/12/22 02:49:11;;;;;;;1.65;0.80;;;21.50;51.90;;;;;;5089520;28;20021;-64
2020/12/22 02:51:36;;;;;;;1.23;0.80;;;21.50;51.80;;;;;;5087031;28;20023;-62
2020/12/22 02:54:02;;;;;;;1.20;0.80;;;21.50;51.80;;;;;;5089850;28;20055;-64
2020/12/22 02:56:30;;;;;;;1.58;0.90;;;21.50;51.90;;;;;;5086210;28;20103;-62
2020/12/22 02:58:56;;;;;;;1.35;0.90;;;21.50;51.90;;;;;;5087384;28;20020;-62
2020/12/22 03:01:22;;;;;;;1.73;0.90;;;21.50;51.90;;;;;;5083202;28;20103;-62
2020/12/22 03:03:47;;;;;;;1.00;0.80;;;21.50;51.90;;;;;;5089419;28;20111;-62
2020/12/22 03:06:13;;;;;;;0.98;0.70;;;21.50;51.90;;;;;;5086167;28;20499;-65
2020/12/22 03:08:39;;;;;;;0.85;0.77;;;21.40;51.80;;;;;;5086140;28;20055;-64
2020/12/22 03:11:04;;;;;;;1.33;0.80;;;21.40;51.80;;;;;;5090098;28;20039;-62
2020/12/22 03:13:30;;;;;;;1.42;0.82;;;21.40;51.80;;;;;;5088124;28;20187;-62
2020/12/22 03:15:56;;;;;;;1.05;0.80;;;21.40;51.80;;;;;;5083305;28;20043;-62
2020/12/22 03:18:21;;;;;;;1.15;0.82;;;21.40;51.80;;;;;;5088623;28;20032;-61
2020/12/22 03:20:47;;;;;;;1.15;0.80;;;21.40;51.80;;;;;;5092165;28;20462;-62
2020/12/22 03:23:13;;;;;;;0.80;0.70;;;21.40;51.80;;;;;;5083147;28;20028;-65
2020/12/22 03:25:38;;;;;;;1.05;0.80;;;21.40;51.80;;;;;;5082682;28;20047;-64
2020/12/22 03:28:04;;;;;;;1.33;0.90;;;21.30;51.80;;;;;;5083430;28;20085;-63
2020/12/22 03:30:29;;;;;;;1.05;0.73;;;21.40;51.80;;;;;;5086114;28;20032;-61
2020/12/22 03:32:55;;;;;;;1.13;0.80;;;21.30;51.80;;;;;;5070258;28;20467;-62
2020/12/22 03:35:21;;;;;;;1.08;0.70;;;21.30;51.80;;;;;;5082990;28;20024;-63
2020/12/22 03:37:46;;;;;;;1.45;0.80;;;21.30;51.70;;;;;;5084369;28;20154;-65
2020/12/22 03:40:12;;;;;;;0.80;0.70;;;21.30;51.80;;;;;;5083701;28;20615;-62
2020/12/22 03:42:39;;;;;;;0.95;0.80;;;21.30;51.80;;;;;;5084895;28;20373;-63
2020/12/22 03:45:06;;;;;;;1.50;0.90;;;21.30;51.80;;;;;;5088183;28;20095;-63
2020/12/22 03:47:33;;;;;;;1.27;0.88;;;21.30;51.80;;;;;;5068728;28;20031;-62
2020/12/22 03:49:58;;;;;;;1.15;0.80;;;21.30;51.80;;;;;;5071159;28;20573;-61
2020/12/22 03:52:24;;;;;;;1.00;0.70;;;21.20;51.70;;;;;;5084415;28;20035;-61
2020/12/22 03:54:50;;;;;;;1.02;0.80;;;21.30;51.80;;;;;;5085453;28;20024;-63
2020/12/22 03:57:16;;;;;;;0.88;0.70;;;21.30;51.80;;;;;;5084327;28;20031;-61
2020/12/22 03:59:42;;;;;;;1.33;0.80;;;21.20;51.80;;;;;;5069850;28;20151;-62
2020/12/22 04:02:09;;;;;;;1.42;0.80;;;21.20;51.70;;;;;;5086796;28;20763;-62
2020/12/22 04:04:34;;;;;;;1.00;0.80;;;21.20;51.80;;;;;;5081286;28;20055;-62
2020/12/22 04:07:00;;;;;;;0.85;0.60;;;21.20;51.80;;;;;;5086254;28;20056;-62
2020/12/22 04:09:26;;;;;;;1.00;0.73;;;21.20;51.80;;;;;;5083717;28;20052;-64
2020/12/22 04:11:52;;;;;;;0.85;0.60;;;21.20;51.80;;;;;;5067862;28;20051;-62
2020/12/22 04:14:19;;;;;;;1.15;0.90;;;21.20;51.80;;;;;;5086682;28;20393;-64
2020/12/22 04:16:45;;;;;;;0.65;0.60;;;21.20;51.70;;;;;;5084103;28;20060;-64
2020/12/22 04:19:11;;;;;;;0.77;0.70;;;21.10;51.70;;;;;;5088470;28;20470;-62
2020/12/22 04:21:37;;;;;;;1.02;0.75;;;21.20;51.80;;;;;;5084300;28;20020;-62
2020/12/22 04:24:04;;;;;;;1.00;0.68;;;21.20;51.80;;;;;;5087121;28;21029;-62
2020/12/22 04:26:31;;;;;;;1.20;0.80;;;21.10;51.80;;;;;;5087438;28;20032;-62
2020/12/22 04:28:57;;;;;;;0.70;0.60;;;21.10;51.70;;;;;;5063680;28;20109;-64
2020/12/22 04:31:22;;;;;;;1.05;0.80;;;21.10;51.80;;;;;;5074772;28;20073;-61
2020/12/22 04:33:50;;;;;;;1.35;0.80;;;21.10;51.80;;;;;;5070058;28;20032;-63
2020/12/22 04:36:16;;;;;;;1.10;0.60;;;21.10;51.80;;;;;;5086772;28;20150;-63
2020/12/22 04:38:42;;;;;;;0.82;0.60;;;21.10;51.80;;;;;;5084835;28;20115;-64
2020/12/22 04:41:11;;;;;;;1.10;0.75;;;21.10;51.80;;;;;;5086035;28;20138;-63
2020/12/22 04:43:44;;;;;;;0.70;0.68;;;21.10;51.80;;;;;;5087767;28;20398;-61
2020/12/22 04:46:10;;;;;;;0.68;0.63;;;21.10;51.80;;;;;;5086673;28;20394;-62
2020/12/22 04:48:39;;;;;;;0.60;0.60;;;21.10;51.80;;;;;;5085438;28;20109;-62
2020/12/22 04:51:08;;;;;;;;;;;21.10;51.80;;;;;;5086433;28;20153;-61
2020/12/22 04:53:35;;;;;;;0.50;0.50;;;21.10;51.90;;;;;;5086740;28;19988;-62
2020/12/22 04:56:02;;;;;;;0.63;0.60;;;21.10;51.80;;;;;;5078456;28;20074;-63
2020/12/22 04:58:28;;;;;;;0.85;0.65;;;21.00;51.80;;;;;;5077726;28;20974;-62
2020/12/22 05:00:56;;;;;;;0.60;0.60;;;21.00;51.70;;;;;;5082908;28;20516;-62
2020/12/22 05:03:22;;;;;;;0.70;0.52;;;21.00;51.80;;;;;;5086333;28;20024;-61
2020/12/22 05:05:49;;;;;;;0.82;0.60;;;21.10;51.80;;;;;;5086643;28;20089;-62
2020/12/22 05:08:15;;;;;;;1.13;0.70;;;21.00;52.30;;;;;;5078230;28;20051;-63
2020/12/22 05:10:45;;;;;;;0.60;0.60;;;21.00;51.80;;;;;;5079797;28;20081;-62
2020/12/22 05:13:12;;;;;;;1.13;0.80;;;21.00;51.80;;;;;;5080567;28;20341;-63
2020/12/22 05:15:48;;;;;;;0.70;0.70;;;21.00;51.80;;;;;;5066404;28;20031;-65
2020/12/22 05:18:14;;;;;;;0.85;0.70;;;21.00;51.80;;;;;;5076221;28;20476;-62
2020/12/22 05:20:41;;;;;;;0.73;0.65;;;21.00;51.80;;;;;;5085533;28;20028;-63
2020/12/22 05:23:17;;;;;;;1.30;0.70;;;21.00;51.90;;;;;;5085473;28;20032;-63
2020/12/22 05:25:47;;;;;;;1.25;0.80;;;21.00;51.80;;;;;;5068677;28;20059;-63
2020/12/22 05:28:16;;;;;;;0.60;0.60;;;21.00;51.90;;;;;;5076643;28;20040;-65
2020/12/22 05:30:43;;;;;;;0.98;0.70;;;21.00;51.90;;;;;;5086154;28;20043;-64
2020/12/22 05:33:09;;;;;;;0.90;0.70;;;21.00;51.90;;;;;;5068726;28;20028;-62
2020/12/22 05:35:44;;;;;;;1.08;0.73;;;21.00;51.80;;;;;;5067246;28;20143;-63
2020/12/22 05:38:10;;;;;;;1.52;0.50;;;21.00;51.80;;;;;;5085433;28;20028;-63
2020/12/22 05:40:41;;;;;;;0.68;0.60;;;20.90;51.80;;;;;;5081586;28;20074;-65
2020/12/22 05:43:08;;;;;;;0.80;0.57;;;20.90;51.80;;;;;;5063416;28;20021;-62
2020/12/22 05:45:35;;;;;;;0.70;0.70;;;21.00;51.90;;;;;;5079408;28;20024;-65
2020/12/22 05:48:01;;;;;;;0.50;0.50;;;20.90;51.80;;;;;;5075337;28;20035;-62
2020/12/22 05:50:27;;;;;;;0.85;0.60;;;20.90;51.80;;;;;;5088926;28;20032;-61
2020/12/22 05:52:56;;;;;;;1.15;0.70;;;21.00;51.90;;;;;;5089670;28;20357;-65
2020/12/22 05:55:32;;;;;;;0.77;0.60;;;20.90;51.80;;;;;;5090216;28;20020;-63
2020/12/22 05:58:14;;;;;;;0.90;0.55;;;20.90;51.90;;;;;;5071232;28;20164;-61
2020/12/22 06:00:43;;;;;;;0.80;0.60;;;20.90;51.90;;;;;;5087322;28;20030;-65
2020/12/22 06:03:09;;;;;;;0.60;0.60;;;20.90;51.90;;;;;;5090404;28;20032;-64
2020/12/22 06:05:45;;;;;;;0.55;0.55;;;20.90;51.90;;;;;;5087514;28;20028;-61
2020/12/22 06:08:12;;;;;;;1.15;0.90;;;20.90;51.90;;;;;;5081419;28;20668;-63
2020/12/22 06:10:40;;;;;;;0.77;0.60;;;20.90;51.90;;;;;;5091040;28;20138;-64
2020/12/22 06:13:07;;;;;;;0.60;0.50;;;20.90;51.90;;;;;;5077712;28;20024;-61
2020/12/22 06:15:34;;;;;;;0.60;0.60;;;20.90;51.80;;;;;;5087329;28;20475;-63
2020/12/22 06:18:01;;;;;;;0.50;0.50;;;20.90;51.80;;;;;;5088840;28;20020;-65
2020/12/22 06:20:28;;;;;;;0.45;0.45;;;20.90;51.80;;;;;;5090906;28;20028;-62
2020/12/22 06:23:07;;;;;;;0.55;0.43;;;20.90;51.80;;;;;;5087104;28;20076;-61
2020/12/22 06:25:36;;;;;;;0.50;0.50;;;20.90;51.80;;;;;;5090821;28;20024;-63
2020/12/22 06:28:03;;;;;;;0.80;0.60;;;20.90;51.80;;;;;;5083730;28;20043;-62
2020/12/22 06:30:37;;;;;;;0.77;0.55;;;20.90;51.80;;;;;;5090979;28;20073;-65
2020/12/22 06:33:34;;;;;;;0.55;0.50;;;20.90;51.80;;;;;;5089375;28;20055;-62
2020/12/22 06:36:08;;;;;;;0.65;0.60;;;20.80;51.70;;;;;;5070574;28;20052;-65
2020/12/22 06:38:56;;;;;;;0.80;0.60;;;20.80;51.80;;;;;;5087709;28;20078;-64
2020/12/22 06:41:30;;;;;;;0.50;0.50;;;20.80;51.70;;;;;;5069537;28;20028;-61
2020/12/22 06:43:56;;;;;;;0.60;0.60;;;20.80;51.70;;;;;;5073244;28;20035;-61
2020/12/22 06:46:34;;;;;;;0.55;0.50;;;20.80;51.70;;;;;;5088577;28;20028;-61
2020/12/22 06:49:05;;;;;;;0.82;0.50;;;20.80;51.80;;;;;;5086146;28;20780;-63
2020/12/22 06:51:33;;;;;;;0.93;0.60;;;20.80;51.80;;;;;;5081127;28;20028;-63
2020/12/22 06:54:25;;;;;;;0.50;0.50;;;20.80;51.80;;;;;;5088282;28;20452;-61
2020/12/22 06:56:51;;;;;;;0.52;0.52;;;20.80;51.70;;;;;;5085340;28;20032;-62
2020/12/22 06:59:37;;;;;;;0.68;0.60;;;20.80;51.80;;;;;;5069788;28;20352;-62
2020/12/22 07:02:03;;;;;;;0.60;0.50;;;20.80;51.70;;;;;;5076765;28;20043;-62
2020/12/22 07:04:38;;;;;;;0.40;0.40;;;20.80;51.70;;;;;;5080194;28;20569;-62
2020/12/22 07:07:04;;;;;;;0.47;0.47;;;20.80;51.60;;;;;;5084773;28;20203;-62
2020/12/22 07:09:31;;;;;;;0.90;0.57;;;20.80;51.60;;;;;;5085468;28;20235;-61
2020/12/22 07:12:10;;;;;;;0.43;0.43;;;20.70;51.50;;;;;;5088341;28;20016;-61
2020/12/22 07:14:50;;;;;;;0.40;0.40;;;20.70;51.50;;;;;;5082236;28;20032;-62
2020/12/22 07:17:21;;;;;;;0.88;0.60;;;20.80;51.50;;;;;;5084179;28;20111;-62
2020/12/22 07:19:51;;;;;;;0.60;0.43;;;20.70;52.00;;;;;;5085115;28;20039;-62
2020/12/22 07:22:18;;;;;;;0.55;0.55;;;20.70;51.50;;;;;;5081546;28;20035;-61
2020/12/22 07:24:44;;;;;;;0.70;0.55;;;20.70;51.50;;;;;;5063998;28;20553;-63
2020/12/22 07:27:10;;;;;;;0.52;0.50;;;20.70;51.50;;;;;;5086001;28;20024;-62
2020/12/22 07:29:39;;;;;;;0.70;0.52;;;20.70;51.50;;;;;;5088290;28;20031;-62
2020/12/22 07:32:06;;;;;;;0.40;0.40;;;20.70;51.50;;;;;;5086480;28;20355;-62
2020/12/22 07:34:33;;;;;;;0.80;0.50;;;20.70;51.50;;;;;;5084812;28;20047;-61
2020/12/22 07:37:10;;;;;;;0.40;0.40;;;20.70;51.60;;;;;;5066022;28;20024;-63
2020/12/22 07:39:38;;;;;;;0.60;0.40;;;20.70;51.60;;;;;;5073431;28;20491;-65
2020/12/22 07:42:18;;;;;;;0.52;0.50;;;20.70;51.60;;;;;;5083372;28;20039;-62
2020/12/22 07:44:45;;;;;;;0.60;0.50;;;20.70;51.60;;;;;;5080137;28;20043;-64
2020/12/22 07:47:12;;;;;;;0.50;0.47;;;20.70;51.60;;;;;;5068397;28;20101;-62
2020/12/22 07:49:39;;;;;;;0.50;0.50;;;20.70;51.60;;;;;;5086374;28;20119;-61
2020/12/22 07:52:05;;;;;;;0.60;0.40;;;20.70;51.60;;;;;;5078387;28;20032;-61
2020/12/22 07:54:31;;;;;;;0.50;0.50;;;20.70;51.70;;;;;;5087595;28;20031;-63
2020/12/22 07:57:00;;;;;;;0.52;0.52;;;20.60;51.60;;;;;;5085604;28;20032;-62
2020/12/22 07:59:27;;;;;;;0.55;0.50;;;20.60;51.60;;;;;;5084286;28;20106;-64
2020/12/22 08:01:53;;;;;;;0.40;0.40;;;20.60;51.60;;;;;;5078342;28;20036;-62
2020/12/22 08:04:24;;;;;;;0.70;0.50;;;20.60;51.60;;;;;;5068307;28;20024;-65
2020/12/22 08:06:56;;;;;;;0.40;0.40;;;20.70;51.70;;;;;;5080721;28;20024;-62
2020/12/22 08:09:26;;;;;;;0.55;0.50;;;20.70;52.30;;;;;;5084048;28;20034;-63
2020/12/22 08:11:57;;;;;;;0.50;0.47;;;20.60;51.70;;;;;;5083414;28;20046;-61
2020/12/22 08:14:24;;;;;;;0.90;0.50;;;20.60;51.70;;;;;;5082613;28;20028;-65
2020/12/22 08:16:59;;;;;;;0.30;0.30;;;20.60;51.70;;;;;;5090336;28;20028;-63
2020/12/22 08:19:30;;;;;;;0.57;0.40;;;20.60;51.70;;;;;;5085925;28;20462;-63
2020/12/22 08:21:59;;;;;;;1.40;0.50;;;20.60;51.70;;;;;;5075917;28;20038;-61
2020/12/22 08:24:27;;;;;;;0.65;0.50;;;20.60;51.80;;;;;;5087292;28;20407;-62
2020/12/22 08:26:53;;;;;;;0.55;0.50;;;20.60;51.80;;;;;;5086514;28;20051;-62
2020/12/22 08:29:19;;;;;;;0.55;0.50;;;20.60;51.80;;;;;;5087306;28;20028;-62
2020/12/22 08:31:46;;;;;;;0.30;0.30;;;20.60;51.80;;;;;;5084128;28;20047;-62
2020/12/22 08:34:16;;;;;;;0.40;0.40;;;20.60;51.80;;;;;;5082348;28;20103;-62
2020/12/22 08:36:43;;;;;;;0.50;0.50;;;20.60;51.90;;;;;;5059334;28;20033;-63
2020/12/22 08:39:23;;;;;;;1.65;0.40;;;20.60;51.90;;;;;;5077057;28;20032;-62
2020/12/22 08:41:55;;;;;;;0.80;0.45;;;20.60;51.90;;;;;;5084383;28;20440;-61
2020/12/22 08:44:22;;;;;;;0.50;0.40;;;20.60;52.00;;;;;;5078646;28;20039;-62
2020/12/22 08:46:48;;;;;;;0.57;0.40;;;20.60;52.00;;;;;;5085145;28;20498;-63
2020/12/22 08:49:13;;;;;;;0.40;0.40;;;20.60;52.00;;;;;;5083169;28;20129;-62
2020/12/22 08:51:40;;;;;;;0.80;0.40;;;20.60;52.00;;;;;;5082142;28;20112;-62
2020/12/22 08:54:06;;;;;;;0.30;0.30;;;20.60;52.00;;;;;;5086879;28;20123;-61
2020/12/22 08:56:32;;;;;;;0.68;0.50;;;20.60;52.10;;;;;;5068446;28;20119;-63
2020/12/22 08:59:00;;;;;;;0.45;0.45;;;20.60;52.00;;;;;;5084360;28;20115;-62
2020/12/22 09:01:45;;;;;;;0.45;0.45;;;20.60;52.00;;;;;;5084732;28;20465;-63
2020/12/22 09:04:13;;;;;;;0.60;0.50;;;20.60;52.10;;;;;;5085056;28;20058;-61
2020/12/22 09:06:41;;;;;;;0.40;0.40;;;20.50;52.00;;;;;;5066554;28;20025;-63
2020/12/22 09:09:10;;;;;;;2.13;0.60;;;20.60;52.10;;;;;;5085344;28;20028;-61
2020/12/22 09:11:36;;;;;;;0.40;0.40;;;20.60;52.10;;;;;;5067831;28;20024;-61
2020/12/22 09:14:19;;;;;;;0.68;0.40;;;20.60;52.10;;;;;;5089221;28;20031;-63
2020/12/22 09:16:48;;;;;;;1.42;0.40;;;20.60;52.20;;;;;;5085648;28;20119;-63
2020/12/22 09:19:16;;;;;;;0.60;0.50;;;20.50;52.10;;;;;;5085292;28;20036;-61
2020/12/22 09:21:41;;;;;;;0.65;0.50;;;20.50;52.10;;;;;;5083811;28;20077;-62
2020/12/22 09:24:14;;;;;;;1.05;0.30;;;20.60;52.10;;;;;;5087164;28;20035;-63
2020/12/22 09:26:58;;;;;;;0.40;0.40;;;20.50;52.10;;;;;;5084128;28;20028;-64
2020/12/22 09:29:25;;;;;;;0.40;0.40;;;20.50;52.10;;;;;;5085915;28;20032;-62
2020/12/22 09:31:53;;;;;;;0.80;0.50;;;20.50;52.10;;;;;;5066630;28;20090;-61
2020/12/22 09:34:20;;;;;;;0.63;0.50;;;20.50;52.10;;;;;;5076636;28;20103;-63
2020/12/22 09:36:50;;;;;;;0.45;0.43;;;20.50;52.10;;;;;;5081956;28;20035;-63
2020/12/22 09:39:16;;;;;;;0.40;0.40;;;20.50;52.20;;;;;;5088023;28;20128;-62
2020/12/22 09:41:43;;;;;;;0.40;0.40;;;20.50;52.20;;;;;;5085294;28;20036;-63
2020/12/22 09:44:09;;;;;;;0.60;0.50;;;20.50;52.10;;;;;;5086487;28;20095;-63
2020/12/22 09:46:34;;;;;;;0.52;0.47;;;20.50;52.20;;;;;;5085526;28;20736;-61
2020/12/22 09:49:00;;;;;;;0.55;0.50;;;20.50;52.20;;;;;;5068010;28;20028;-63
2020/12/22 09:51:26;;;;;;;0.98;0.50;;;20.50;52.20;;;;;;5086876;28;20093;-64
2020/12/22 09:53:51;;;;;;;0.60;0.40;;;20.50;52.20;;;;;;5084776;28;20100;-61
2020/12/22 09:56:17;;;;;;;0.77;0.40;;;20.50;52.20;;;;;;5080310;28;20120;-63
2020/12/22 09:58:42;;;;;;;0.40;0.40;;;20.50;52.20;;;;;;5083060;28;20057;-64
2020/12/22 10:01:08;;;;;;;0.95;0.50;;;20.50;52.20;;;;;;5065112;28;20581;-62
2020/12/22 10:03:34;;;;;;;0.43;0.40;;;20.50;52.20;;;;;;5084673;28;20032;-61
2020/12/22 10:05:59;;;;;;;0.95;0.50;;;20.50;52.20;;;;;;5061300;28;20036;-61
2020/12/22 10:08:25;;;;;;;0.50;0.50;;;20.50;52.20;;;;;;5076907;28;20108;-62
2020/12/22 10:10:50;;;;;;;0.57;0.38;;;20.50;52.20;;;;;;5047970;28;20977;-62
2020/12/22 10:13:16;;;;;;;0.40;0.40;;;20.50;52.70;;;;;;5078735;28;20436;-61
2020/12/22 10:15:41;;;;;;;0.68;0.47;;;20.50;52.20;;;;;;5081414;28;20020;-65
2020/12/22 10:18:09;;;;;;;1.30;0.50;;;20.50;52.20;;;;;;5083743;28;20120;-64
2020/12/22 10:20:36;;;;;;;1.33;0.50;;;20.50;52.20;;;;;;5086148;28;20024;-62
2020/12/22 10:23:02;;;;;;;1.08;0.50;;;20.50;52.30;;;;;;5074556;28;20576;-64
2020/12/22 10:25:28;;;;;;;1.08;0.50;;;20.50;52.20;;;;;;5085126;28;20103;-62
2020/12/22 10:27:53;;;;;;;1.52;0.40;;;20.50;52.20;;;;;;5083560;28;20165;-63
2020/12/22 10:30:19;;;;;;;0.90;0.70;;;20.50;51.30;;;;;;5083253;28;20032;-61
2020/12/22 10:32:45;;;;;;;1.33;0.70;;;20.40;50.70;;;;;;5071127;28;20025;-60
2020/12/22 10:35:10;;;;;;;1.13;0.70;;;20.40;50.00;;;;;;5086268;28;20016;-61
2020/12/22 10:37:36;;;;;;;0.90;0.60;;;20.30;50.10;;;;;;5086962;28;20059;-62
2020/12/22 10:40:02;;;;;;;0.77;0.50;;;20.30;50.90;;;;;;5087506;28;20039;-62
2020/12/22 10:42:27;;;;;;;0.50;0.47;;;20.30;50.60;;;;;;5086101;28;20028;-63
2020/12/22 10:44:53;;;;;;;0.63;0.52;;;20.30;50.60;;;;;;5089470;28;20039;-63
2020/12/22 10:47:19;;;;;;;0.40;0.40;;;20.30;50.60;;;;;;5087975;28;20078;-63
2020/12/22 10:49:44;;;;;;;0.50;0.50;;;20.40;50.70;;;;;;5084918;28;20473;-61
2020/12/22 10:52:10;;;;;;;0.90;0.55;;;20.30;50.60;;;;;;5085560;28;20024;-62
2020/12/22 10:54:36;;;;;;;0.63;0.50;;;20.30;50.70;;;;;;5088905;28;20482;-61
2020/12/22 10:57:01;;;;;;;0.70;0.50;;;20.30;50.70;;;;;;5084889;28;20036;-64
2020/12/22 10:59:27;;;;;;;0.82;0.50;;;20.30;50.70;;;;;;5087834;28;20111;-64
2020/12/22 11:01:52;;;;;;;0.45;0.45;;;20.30;50.70;;;;;;5082364;28;20475;-62
2020/12/22 11:04:18;;;;;;;0.50;0.50;;;20.30;50.70;;;;;;5088914;28;20024;-64
2020/12/22 11:06:51;;;;;;;0.47;0.43;;;20.30;50.80;;;;;;5087907;28;20127;-61
2020/12/22 11:09:17;;;;;;;0.95;0.50;;;20.30;50.90;;;;;;5087944;28;20912;-62
2020/12/22 11:11:46;;;;;;;0.73;0.68;;;20.30;51.10;;;;;;5085362;28;20112;-64
2020/12/22 11:14:12;;;;;;;1.42;0.50;;;20.30;51.20;;;;;;5081572;28;20124;-63
2020/12/22 11:16:38;;;;;;;0.57;0.50;;;20.30;51.30;;;;;;5079854;28;20082;-62
2020/12/22 11:19:03;;;;;;;0.50;0.50;;;20.30;51.40;;;;;;5081079;28;20102;-65
2020/12/22 11:21:29;;;;;;;0.63;0.40;;;20.30;51.50;;;;;;5083236;28;20048;-63
2020/12/22 11:23:54;;;;;;;0.60;0.45;;;20.30;51.70;;;;;;5082799;28;20050;-63
2020/12/22 11:26:22;;;;;;;1.60;0.50;;;20.30;51.80;;;;;;5065692;28;20866;-62
2020/12/22 11:28:48;;;;;;;0.63;0.50;;;20.30;51.90;;;;;;5081222;28;20028;-62
2020/12/22 11:31:14;;;;;;;0.90;0.47;;;20.30;52.00;;;;;;5074928;28;20020;-64
2020/12/22 11:33:40;;;;;;;0.75;0.60;;;20.30;52.10;;;;;;5067949;28;20037;-63
2020/12/22 11:36:09;;;;;;;0.75;0.40;;;20.30;52.10;;;;;;5067513;28;20035;-62
2020/12/22 11:38:34;;;;;;;0.57;0.50;;;20.40;52.30;;;;;;5078903;28;20374;-64
2020/12/22 11:41:00;;;;;;;0.40;0.40;;;20.40;52.30;;;;;;5077223;28;20028;-64
2020/12/22 11:43:25;;;;;;;0.40;0.40;;;20.40;52.30;;;;;;5070463;28;20042;-62
2020/12/22 11:45:51;;;;;;;0.77;0.50;;;20.40;52.50;;;;;;5074285;28;20055;-62
2020/12/22 11:48:17;;;;;;;0.57;0.55;;;20.40;52.50;;;;;;5074964;28;20502;-62
2020/12/22 11:50:42;;;;;;;0.47;0.43;;;20.40;52.50;;;;;;5059175;28;20454;-64
2020/12/22 11:53:08;;;;;;;0.90;0.50;;;20.40;52.60;;;;;;5072245;28;20116;-64
2020/12/22 11:55:33;;;;;;;0.40;0.40;;;20.40;52.70;;;;;;5079159;28;20032;-61
2020/12/22 11:57:59;;;;;;;0.82;0.63;;;20.50;53.20;;;;;;5075210;28;20028;-63
2020/12/22 12:00:25;;;;;;;0.98;0.70;;;20.60;53.10;;;;;;5074172;28;20025;-61
2020/12/22 12:02:51;;;;;;;1.00;0.70;;;20.70;52.90;;;;;;5075229;28;20127;-64
2020/12/22 12:05:16;;;;;;;1.00;0.70;;;20.90;52.80;;;;;;5077006;28;20035;-61
2020/12/22 12:07:42;;;;;;;1.17;0.70;;;21.00;52.50;;;;;;5077379;28;20120;-63
2020/12/22 12:10:07;;;;;;;1.55;0.70;;;21.20;52.40;;;;;;5086314;28;20953;-62
2020/12/22 12:12:33;;;;;;;0.75;0.60;;;21.30;52.10;;;;;;5073715;28;20052;-61
2020/12/22 12:15:01;;;;;;;1.20;0.60;;;21.40;51.70;;;;;;5077965;28;20489;-63
2020/12/22 12:17:26;;;;;;;0.60;0.60;;;21.40;51.70;;;;;;5071318;28;20028;-66
2020/12/22 12:19:52;;;;;;;2.03;0.75;;;21.50;51.40;;;;;;5083630;28;20031;-67
2020/12/22 12:22:17;;;;;;;0.95;0.65;;;21.60;51.50;;;;;;5083653;28;20463;-63
2020/12/22 12:24:43;;;;;;;0.75;0.68;;;21.60;51.40;;;;;;5079232;28;20035;-64
2020/12/22 12:27:09;;;;;;;0.80;0.70;;;21.70;51.30;;;;;;5078589;28;20032;-65
2020/12/22 12:29:34;;;;;;;1.33;0.82;;;21.70;51.20;;;;;;5064359;28;20070;-63
2020/12/22 12:32:00;;;;;;;3.00;0.90;;;21.80;50.90;;;;;;5069271;28;20020;-64
2020/12/22 12:34:25;;;;;;;0.88;0.77;;;21.90;50.90;;;;;;5084749;28;20093;-63
2020/12/22 12:36:53;;;;;;;1.35;0.80;;;21.90;50.80;;;;;;5065706;28;20035;-64
2020/12/22 12:39:19;;;;;;;1.55;0.70;;;21.90;50.70;;;;;;5076591;28;20376;-63
2020/12/22 12:41:49;;;;;;;0.77;0.60;;;21.90;50.70;;;;;;5074612;28;20028;-63
2020/12/22 12:44:15;;;;;;;1.67;0.70;;;21.90;50.70;;;;;;5083042;28;20566;-66
2020/12/22 12:46:41;;;;;;;1.30;0.95;;;21.90;51.10;;;;;;5078066;28;20108;-66
2020/12/22 12:49:06;;;;;;;1.65;0.90;;;22.00;50.60;;;;;;5079852;28;20080;-64